sensor_id;sensor_type;location;lat;lon;timestamp;P1;durP1;ratioP1;P2;durP2;ratioP2
45368;SDS011;51342;55.250;37.668;2022-12-10T00:04:03;56.83;;;17.43;;
45368;SDS011;51342;55.250;37.668;2022-12-10T00:06:36;64.20;;;19.10;;
45368;SDS011;51342;55.250;37.668;2022-12-10T00:09:10;62.00;;;16.97;;
45368;SDS011;51342;55.250;37.668;2022-12-10T00:11:43;51.00;;;15.93;;
45368;SDS011;51342;55.250;37.668;2022-12-10T00:14:14;65.23;;;17.87;;
45368;SDS011;51342;55.250;37.668;2022-12-10T00:16:46;58.57;;;16.80;;
45368;SDS011;51342;55.250;37.668;2022-12-10T00:19:17;59.93;;;16.83;;
45368;SDS011;51342;55.250;37.668;2022-12-10T00:21:49;59.10;;;17.67;;
45368;SDS011;51342;55.250;37.668;2022-12-10T00:24:20;53.50;;;18.27;;
45368;SDS011;51342;55.250;37.668;2022-12-10T00:26:51;61.53;;;16.87;;
45368;SDS011;51342;55.250;37.668;2022-12-10T00:29:23;58.17;;;17.93;;
45368;SDS011;51342;55.250;37.668;2022-12-10T00:31:54;62.67;;;17.93;;
45368;SDS011;51342;55.250;37.668;2022-12-10T00:34:25;55.27;;;18.10;;
45368;SDS011;51342;55.250;37.668;2022-12-10T00:36:57;57.13;;;16.77;;
45368;SDS011;51342;55.250;37.668;2022-12-10T00:39:28;51.93;;;17.67;;
45368;SDS011;51342;55.250;37.668;2022-12-10T00:42:00;56.23;;;17.47;;
45368;SDS011;51342;55.250;37.668;2022-12-10T00:44:31;67.63;;;17.33;;
45368;SDS011;51342;55.250;37.668;2022-12-10T00:47:02;60.80;;;18.57;;
45368;SDS011;51342;55.250;37.668;2022-12-10T00:49:34;66.53;;;18.90;;
45368;SDS011;51342;55.250;37.668;2022-12-10T00:52:05;60.13;;;18.27;;
45368;SDS011;51342;55.250;37.668;2022-12-10T00:54:37;61.10;;;16.63;;
45368;SDS011;51342;55.250;37.668;2022-12-10T00:57:08;63.67;;;17.87;;
45368;SDS011;51342;55.250;37.668;2022-12-10T00:59:39;65.10;;;20.50;;
45368;SDS011;51342;55.250;37.668;2022-12-10T01:02:11;58.23;;;16.83;;
45368;SDS011;51342;55.250;37.668;2022-12-10T01:04:42;67.27;;;18.77;;
45368;SDS011;51342;55.250;37.668;2022-12-10T01:07:14;65.13;;;18.27;;
45368;SDS011;51342;55.250;37.668;2022-12-10T01:09:45;57.73;;;17.97;;
45368;SDS011;51342;55.250;37.668;2022-12-10T01:12:16;65.80;;;17.53;;
45368;SDS011;51342;55.250;37.668;2022-12-10T01:14:48;62.67;;;17.47;;
45368;SDS011;51342;55.250;37.668;2022-12-10T01:17:20;62.63;;;17.90;;
45368;SDS011;51342;55.250;37.668;2022-12-10T01:19:52;62.30;;;17.20;;
45368;SDS011;51342;55.250;37.668;2022-12-10T01:22:24;53.27;;;16.63;;
45368;SDS011;51342;55.250;37.668;2022-12-10T01:24:55;59.07;;;17.57;;
45368;SDS011;51342;55.250;37.668;2022-12-10T01:27:26;58.73;;;17.90;;
45368;SDS011;51342;55.250;37.668;2022-12-10T01:30:00;60.40;;;17.80;;
45368;SDS011;51342;55.250;37.668;2022-12-10T01:32:31;47.50;;;16.90;;
45368;SDS011;51342;55.250;37.668;2022-12-10T01:35:04;54.77;;;17.80;;
45368;SDS011;51342;55.250;37.668;2022-12-10T01:37:35;57.10;;;18.97;;
45368;SDS011;51342;55.250;37.668;2022-12-10T01:40:07;54.20;;;18.07;;
45368;SDS011;51342;55.250;37.668;2022-12-10T01:42:39;48.97;;;17.63;;
45368;SDS011;51342;55.250;37.668;2022-12-10T01:45:11;52.13;;;18.93;;
45368;SDS011;51342;55.250;37.668;2022-12-10T01:47:43;60.10;;;19.60;;
45368;SDS011;51342;55.250;37.668;2022-12-10T01:50:15;48.50;;;18.73;;
45368;SDS011;51342;55.250;37.668;2022-12-10T01:52:47;62.00;;;19.43;;
45368;SDS011;51342;55.250;37.668;2022-12-10T01:58:19;48.67;;;17.63;;
45368;SDS011;51342;55.250;37.668;2022-12-10T02:03:52;50.03;;;18.43;;
45368;SDS011;51342;55.250;37.668;2022-12-10T02:06:55;53.93;;;18.90;;
45368;SDS011;51342;55.250;37.668;2022-12-10T02:15:25;48.90;;;17.87;;
45368;SDS011;51342;55.250;37.668;2022-12-10T02:18:09;49.23;;;19.27;;
45368;SDS011;51342;55.250;37.668;2022-12-10T02:21:03;47.60;;;17.93;;
45368;SDS011;51342;55.250;37.668;2022-12-10T02:23:41;51.97;;;18.07;;
45368;SDS011;51342;55.250;37.668;2022-12-10T02:31:48;44.43;;;17.70;;
45368;SDS011;51342;55.250;37.668;2022-12-10T02:34:40;50.20;;;18.20;;
45368;SDS011;51342;55.250;37.668;2022-12-10T02:37:34;46.83;;;18.40;;
45368;SDS011;51342;55.250;37.668;2022-12-10T02:40:11;47.43;;;18.80;;
45368;SDS011;51342;55.250;37.668;2022-12-10T02:42:51;45.57;;;19.03;;
45368;SDS011;51342;55.250;37.668;2022-12-10T02:45:25;52.90;;;18.87;;
45368;SDS011;51342;55.250;37.668;2022-12-10T02:48:00;51.67;;;20.30;;
45368;SDS011;51342;55.250;37.668;2022-12-10T02:50:41;52.67;;;20.53;;
45368;SDS011;51342;55.250;37.668;2022-12-10T02:53:12;51.27;;;18.70;;
45368;SDS011;51342;55.250;37.668;2022-12-10T03:04:26;47.77;;;18.93;;
45368;SDS011;51342;55.250;37.668;2022-12-10T03:07:12;47.70;;;17.90;;
45368;SDS011;51342;55.250;37.668;2022-12-10T03:09:53;46.03;;;19.13;;
45368;SDS011;51342;55.250;37.668;2022-12-10T03:12:35;46.27;;;18.40;;
45368;SDS011;51342;55.250;37.668;2022-12-10T03:15:11;46.13;;;19.40;;
45368;SDS011;51342;55.250;37.668;2022-12-10T03:17:45;54.83;;;19.93;;
45368;SDS011;51342;55.250;37.668;2022-12-10T03:20:17;50.10;;;19.57;;
45368;SDS011;51342;55.250;37.668;2022-12-10T03:22:49;49.20;;;19.83;;
45368;SDS011;51342;55.250;37.668;2022-12-10T03:25:22;48.60;;;19.63;;
45368;SDS011;51342;55.250;37.668;2022-12-10T03:27:55;50.17;;;19.63;;
45368;SDS011;51342;55.250;37.668;2022-12-10T03:30:30;52.70;;;21.10;;
45368;SDS011;51342;55.250;37.668;2022-12-10T03:33:03;52.37;;;20.50;;
45368;SDS011;51342;55.250;37.668;2022-12-10T03:35:35;53.80;;;20.57;;
45368;SDS011;51342;55.250;37.668;2022-12-10T03:38:09;48.13;;;19.10;;
45368;SDS011;51342;55.250;37.668;2022-12-10T03:40:41;54.03;;;20.37;;
45368;SDS011;51342;55.250;37.668;2022-12-10T03:43:13;53.07;;;20.87;;
45368;SDS011;51342;55.250;37.668;2022-12-10T03:45:44;54.90;;;21.10;;
45368;SDS011;51342;55.250;37.668;2022-12-10T03:48:16;53.23;;;19.73;;
45368;SDS011;51342;55.250;37.668;2022-12-10T03:50:47;54.17;;;21.03;;
45368;SDS011;51342;55.250;37.668;2022-12-10T03:53:19;59.37;;;21.07;;
45368;SDS011;51342;55.250;37.668;2022-12-10T03:55:50;54.30;;;20.70;;
45368;SDS011;51342;55.250;37.668;2022-12-10T03:58:22;54.07;;;21.40;;
45368;SDS011;51342;55.250;37.668;2022-12-10T04:00:53;57.67;;;20.50;;
45368;SDS011;51342;55.250;37.668;2022-12-10T04:03:24;61.60;;;20.33;;
45368;SDS011;51342;55.250;37.668;2022-12-10T04:06:03;59.60;;;20.47;;
45368;SDS011;51342;55.250;37.668;2022-12-10T04:08:36;64.53;;;23.07;;
45368;SDS011;51342;55.250;37.668;2022-12-10T04:11:08;62.17;;;22.23;;
45368;SDS011;51342;55.250;37.668;2022-12-10T04:13:41;60.43;;;22.03;;
45368;SDS011;51342;55.250;37.668;2022-12-10T04:16:39;60.20;;;21.00;;
45368;SDS011;51342;55.250;37.668;2022-12-10T04:19:12;66.83;;;21.73;;
45368;SDS011;51342;55.250;37.668;2022-12-10T04:21:45;74.53;;;25.27;;
45368;SDS011;51342;55.250;37.668;2022-12-10T04:24:36;66.63;;;24.23;;
45368;SDS011;51342;55.250;37.668;2022-12-10T04:27:27;72.70;;;25.47;;
45368;SDS011;51342;55.250;37.668;2022-12-10T04:30:10;67.90;;;24.27;;
45368;SDS011;51342;55.250;37.668;2022-12-10T04:32:42;68.83;;;24.37;;
45368;SDS011;51342;55.250;37.668;2022-12-10T04:35:14;69.80;;;24.47;;
45368;SDS011;51342;55.250;37.668;2022-12-10T04:37:45;72.27;;;24.50;;
45368;SDS011;51342;55.250;37.668;2022-12-10T04:40:17;71.33;;;23.87;;
45368;SDS011;51342;55.250;37.668;2022-12-10T04:42:48;68.40;;;23.50;;
45368;SDS011;51342;55.250;37.668;2022-12-10T04:45:19;65.77;;;23.87;;
45368;SDS011;51342;55.250;37.668;2022-12-10T04:47:53;75.37;;;24.60;;
45368;SDS011;51342;55.250;37.668;2022-12-10T04:50:24;74.47;;;24.97;;
45368;SDS011;51342;55.250;37.668;2022-12-10T04:52:55;71.60;;;24.70;;
45368;SDS011;51342;55.250;37.668;2022-12-10T04:55:27;69.47;;;24.03;;
45368;SDS011;51342;55.250;37.668;2022-12-10T04:57:58;73.83;;;24.27;;
45368;SDS011;51342;55.250;37.668;2022-12-10T05:00:30;71.63;;;23.93;;
45368;SDS011;51342;55.250;37.668;2022-12-10T05:03:01;69.90;;;22.57;;
45368;SDS011;51342;55.250;37.668;2022-12-10T05:05:33;69.77;;;24.03;;
45368;SDS011;51342;55.250;37.668;2022-12-10T05:08:05;76.40;;;23.83;;
45368;SDS011;51342;55.250;37.668;2022-12-10T05:10:36;64.73;;;25.37;;
45368;SDS011;51342;55.250;37.668;2022-12-10T05:13:08;67.57;;;22.73;;
45368;SDS011;51342;55.250;37.668;2022-12-10T05:15:39;76.80;;;24.07;;
45368;SDS011;51342;55.250;37.668;2022-12-10T05:18:11;65.93;;;22.10;;
45368;SDS011;51342;55.250;37.668;2022-12-10T05:20:42;71.00;;;22.67;;
45368;SDS011;51342;55.250;37.668;2022-12-10T05:23:13;64.87;;;21.60;;
45368;SDS011;51342;55.250;37.668;2022-12-10T05:26:01;72.03;;;22.40;;
45368;SDS011;51342;55.250;37.668;2022-12-10T05:28:48;67.28;;;22.42;;
45368;SDS011;51342;55.250;37.668;2022-12-10T05:31:24;72.13;;;22.57;;
45368;SDS011;51342;55.250;37.668;2022-12-10T05:33:59;76.20;;;22.90;;
45368;SDS011;51342;55.250;37.668;2022-12-10T05:36:31;66.63;;;22.90;;
45368;SDS011;51342;55.250;37.668;2022-12-10T05:39:02;69.00;;;22.77;;
45368;SDS011;51342;55.250;37.668;2022-12-10T05:41:35;75.03;;;22.90;;
45368;SDS011;51342;55.250;37.668;2022-12-10T05:44:08;66.23;;;22.63;;
45368;SDS011;51342;55.250;37.668;2022-12-10T05:46:40;69.37;;;22.23;;
45368;SDS011;51342;55.250;37.668;2022-12-10T05:49:12;70.23;;;21.37;;
45368;SDS011;51342;55.250;37.668;2022-12-10T05:51:43;68.53;;;21.47;;
45368;SDS011;51342;55.250;37.668;2022-12-10T05:54:14;73.73;;;23.73;;
45368;SDS011;51342;55.250;37.668;2022-12-10T05:56:46;74.30;;;22.83;;
45368;SDS011;51342;55.250;37.668;2022-12-10T05:59:17;76.13;;;23.43;;
45368;SDS011;51342;55.250;37.668;2022-12-10T06:01:48;75.70;;;23.57;;
45368;SDS011;51342;55.250;37.668;2022-12-10T06:04:20;69.87;;;22.63;;
45368;SDS011;51342;55.250;37.668;2022-12-10T06:06:51;79.80;;;24.43;;
45368;SDS011;51342;55.250;37.668;2022-12-10T06:09:23;84.50;;;23.40;;
45368;SDS011;51342;55.250;37.668;2022-12-10T06:11:54;81.77;;;24.70;;
45368;SDS011;51342;55.250;37.668;2022-12-10T06:14:25;77.07;;;23.57;;
45368;SDS011;51342;55.250;37.668;2022-12-10T06:16:57;80.90;;;24.20;;
45368;SDS011;51342;55.250;37.668;2022-12-10T06:19:28;88.57;;;24.43;;
45368;SDS011;51342;55.250;37.668;2022-12-10T06:21:59;82.53;;;24.00;;
45368;SDS011;51342;55.250;37.668;2022-12-10T06:24:31;82.80;;;24.13;;
45368;SDS011;51342;55.250;37.668;2022-12-10T06:27:03;91.53;;;25.50;;
45368;SDS011;51342;55.250;37.668;2022-12-10T06:29:36;84.43;;;25.63;;
45368;SDS011;51342;55.250;37.668;2022-12-10T06:32:07;94.70;;;24.80;;
45368;SDS011;51342;55.250;37.668;2022-12-10T06:34:38;83.27;;;23.73;;
45368;SDS011;51342;55.250;37.668;2022-12-10T06:37:10;87.27;;;27.30;;
45368;SDS011;51342;55.250;37.668;2022-12-10T06:39:41;85.60;;;25.47;;
45368;SDS011;51342;55.250;37.668;2022-12-10T06:42:13;86.20;;;26.03;;
45368;SDS011;51342;55.250;37.668;2022-12-10T06:44:45;103.83;;;25.53;;
45368;SDS011;51342;55.250;37.668;2022-12-10T06:47:16;93.73;;;26.60;;
45368;SDS011;51342;55.250;37.668;2022-12-10T06:49:47;97.73;;;26.00;;
45368;SDS011;51342;55.250;37.668;2022-12-10T06:52:19;86.17;;;23.83;;
45368;SDS011;51342;55.250;37.668;2022-12-10T06:54:50;97.83;;;27.33;;
45368;SDS011;51342;55.250;37.668;2022-12-10T06:57:22;103.57;;;26.60;;
45368;SDS011;51342;55.250;37.668;2022-12-10T06:59:53;101.67;;;26.00;;
45368;SDS011;51342;55.250;37.668;2022-12-10T07:02:25;106.23;;;26.37;;
45368;SDS011;51342;55.250;37.668;2022-12-10T07:04:56;102.77;;;26.83;;
45368;SDS011;51342;55.250;37.668;2022-12-10T07:07:27;100.47;;;27.53;;
45368;SDS011;51342;55.250;37.668;2022-12-10T07:09:59;94.63;;;26.80;;
45368;SDS011;51342;55.250;37.668;2022-12-10T07:12:30;100.77;;;27.23;;
45368;SDS011;51342;55.250;37.668;2022-12-10T07:15:03;119.10;;;28.00;;
45368;SDS011;51342;55.250;37.668;2022-12-10T07:17:35;100.40;;;25.57;;
45368;SDS011;51342;55.250;37.668;2022-12-10T07:20:07;103.23;;;26.57;;
45368;SDS011;51342;55.250;37.668;2022-12-10T07:22:39;109.67;;;26.67;;
45368;SDS011;51342;55.250;37.668;2022-12-10T07:25:10;107.90;;;27.27;;
45368;SDS011;51342;55.250;37.668;2022-12-10T07:27:41;100.87;;;25.33;;
45368;SDS011;51342;55.250;37.668;2022-12-10T07:30:13;98.87;;;26.90;;
45368;SDS011;51342;55.250;37.668;2022-12-10T07:32:44;99.27;;;27.63;;
45368;SDS011;51342;55.250;37.668;2022-12-10T07:35:16;102.13;;;26.50;;
45368;SDS011;51342;55.250;37.668;2022-12-10T07:37:48;94.83;;;25.60;;
45368;SDS011;51342;55.250;37.668;2022-12-10T07:40:19;94.70;;;26.73;;
45368;SDS011;51342;55.250;37.668;2022-12-10T07:42:51;98.43;;;26.80;;
45368;SDS011;51342;55.250;37.668;2022-12-10T07:45:22;99.43;;;25.30;;
45368;SDS011;51342;55.250;37.668;2022-12-10T07:47:54;90.77;;;26.43;;
45368;SDS011;51342;55.250;37.668;2022-12-10T07:50:25;109.50;;;27.93;;
45368;SDS011;51342;55.250;37.668;2022-12-10T07:52:56;96.10;;;26.67;;
45368;SDS011;51342;55.250;37.668;2022-12-10T07:55:28;96.20;;;26.37;;
45368;SDS011;51342;55.250;37.668;2022-12-10T07:57:59;87.10;;;25.50;;
45368;SDS011;51342;55.250;37.668;2022-12-10T08:00:31;100.57;;;28.43;;
45368;SDS011;51342;55.250;37.668;2022-12-10T08:03:02;95.63;;;25.80;;
45368;SDS011;51342;55.250;37.668;2022-12-10T08:05:34;88.90;;;24.60;;
45368;SDS011;51342;55.250;37.668;2022-12-10T08:08:05;98.57;;;26.33;;
45368;SDS011;51342;55.250;37.668;2022-12-10T08:10:40;97.13;;;27.03;;
45368;SDS011;51342;55.250;37.668;2022-12-10T08:13:11;97.93;;;25.17;;
45368;SDS011;51342;55.250;37.668;2022-12-10T08:15:42;97.70;;;25.47;;
45368;SDS011;51342;55.250;37.668;2022-12-10T08:18:14;103.33;;;28.17;;
45368;SDS011;51342;55.250;37.668;2022-12-10T08:20:45;92.47;;;25.37;;
45368;SDS011;51342;55.250;37.668;2022-12-10T08:23:17;94.37;;;27.17;;
45368;SDS011;51342;55.250;37.668;2022-12-10T08:25:48;108.90;;;27.63;;
45368;SDS011;51342;55.250;37.668;2022-12-10T08:28:19;100.00;;;27.30;;
45368;SDS011;51342;55.250;37.668;2022-12-10T08:30:51;96.57;;;25.53;;
45368;SDS011;51342;55.250;37.668;2022-12-10T08:33:22;104.70;;;27.03;;
45368;SDS011;51342;55.250;37.668;2022-12-10T08:35:57;110.00;;;27.57;;
45368;SDS011;51342;55.250;37.668;2022-12-10T08:38:30;93.63;;;27.13;;
45368;SDS011;51342;55.250;37.668;2022-12-10T08:41:06;96.27;;;26.73;;
45368;SDS011;51342;55.250;37.668;2022-12-10T08:43:39;103.80;;;28.93;;
45368;SDS011;51342;55.250;37.668;2022-12-10T08:46:11;99.83;;;29.43;;
45368;SDS011;51342;55.250;37.668;2022-12-10T08:48:43;102.67;;;28.57;;
45368;SDS011;51342;55.250;37.668;2022-12-10T08:51:15;108.43;;;30.77;;
45368;SDS011;51342;55.250;37.668;2022-12-10T08:53:48;102.87;;;28.40;;
45368;SDS011;51342;55.250;37.668;2022-12-10T08:56:19;86.63;;;26.30;;
45368;SDS011;51342;55.250;37.668;2022-12-10T08:58:51;99.27;;;27.17;;
45368;SDS011;51342;55.250;37.668;2022-12-10T09:01:22;88.07;;;25.60;;
45368;SDS011;51342;55.250;37.668;2022-12-10T09:03:54;82.27;;;25.00;;
45368;SDS011;51342;55.250;37.668;2022-12-10T09:06:25;82.37;;;24.10;;
45368;SDS011;51342;55.250;37.668;2022-12-10T09:08:57;100.33;;;27.67;;
45368;SDS011;51342;55.250;37.668;2022-12-10T09:11:29;91.67;;;26.43;;
45368;SDS011;51342;55.250;37.668;2022-12-10T09:14:03;92.50;;;25.80;;
45368;SDS011;51342;55.250;37.668;2022-12-10T09:16:35;102.17;;;26.30;;
45368;SDS011;51342;55.250;37.668;2022-12-10T09:19:08;100.90;;;26.53;;
45368;SDS011;51342;55.250;37.668;2022-12-10T09:21:40;97.13;;;26.93;;
45368;SDS011;51342;55.250;37.668;2022-12-10T09:24:13;86.47;;;25.50;;
45368;SDS011;51342;55.250;37.668;2022-12-10T09:26:45;100.70;;;27.20;;
45368;SDS011;51342;55.250;37.668;2022-12-10T09:29:18;101.30;;;26.37;;
45368;SDS011;51342;55.250;37.668;2022-12-10T09:31:49;113.80;;;28.23;;
45368;SDS011;51342;55.250;37.668;2022-12-10T09:34:21;98.73;;;25.50;;
45368;SDS011;51342;55.250;37.668;2022-12-10T09:36:53;92.73;;;26.87;;
45368;SDS011;51342;55.250;37.668;2022-12-10T09:39:24;112.17;;;27.13;;
45368;SDS011;51342;55.250;37.668;2022-12-10T09:41:59;113.03;;;28.43;;
45368;SDS011;51342;55.250;37.668;2022-12-10T09:50:35;109.60;;;28.23;;
45368;SDS011;51342;55.250;37.668;2022-12-10T09:53:13;117.87;;;29.10;;
45368;SDS011;51342;55.250;37.668;2022-12-10T09:55:49;127.60;;;32.27;;
45368;SDS011;51342;55.250;37.668;2022-12-10T09:58:21;124.93;;;30.67;;
45368;SDS011;51342;55.250;37.668;2022-12-10T10:00:59;121.07;;;31.43;;
45368;SDS011;51342;55.250;37.668;2022-12-10T10:03:36;125.32;;;31.13;;
45368;SDS011;51342;55.250;37.668;2022-12-10T10:06:11;128.87;;;30.20;;
45368;SDS011;51342;55.250;37.668;2022-12-10T10:08:46;144.77;;;33.27;;
45368;SDS011;51342;55.250;37.668;2022-12-10T10:11:31;138.17;;;33.93;;
45368;SDS011;51342;55.250;37.668;2022-12-10T10:14:05;156.33;;;34.43;;
45368;SDS011;51342;55.250;37.668;2022-12-10T10:19:33;150.73;;;35.10;;
45368;SDS011;51342;55.250;37.668;2022-12-10T10:22:08;138.35;;;34.05;;
45368;SDS011;51342;55.250;37.668;2022-12-10T10:24:41;123.10;;;32.33;;
45368;SDS011;51342;55.250;37.668;2022-12-10T10:27:17;130.50;;;32.47;;
45368;SDS011;51342;55.250;37.668;2022-12-10T10:29:54;112.50;;;31.02;;
45368;SDS011;51342;55.250;37.668;2022-12-10T10:32:30;121.00;;;29.60;;
45368;SDS011;51342;55.250;37.668;2022-12-10T10:35:24;115.37;;;30.50;;
45368;SDS011;51342;55.250;37.668;2022-12-10T10:38:07;99.63;;;27.17;;
45368;SDS011;51342;55.250;37.668;2022-12-10T10:40:46;113.73;;;30.07;;
45368;SDS011;51342;55.250;37.668;2022-12-10T10:43:59;110.20;;;29.53;;
45368;SDS011;51342;55.250;37.668;2022-12-10T10:46:23;102.60;;;27.83;;
45368;SDS011;51342;55.250;37.668;2022-12-10T10:49:17;106.03;;;27.80;;
45368;SDS011;51342;55.250;37.668;2022-12-10T10:51:50;104.70;;;26.73;;
45368;SDS011;51342;55.250;37.668;2022-12-10T10:54:38;105.87;;;25.97;;
45368;SDS011;51342;55.250;37.668;2022-12-10T10:57:47;107.77;;;25.67;;
45368;SDS011;51342;55.250;37.668;2022-12-10T11:02:47;89.77;;;25.57;;
45368;SDS011;51342;55.250;37.668;2022-12-10T11:07:58;92.90;;;25.40;;
45368;SDS011;51342;55.250;37.668;2022-12-10T11:10:31;86.70;;;25.80;;
45368;SDS011;51342;55.250;37.668;2022-12-10T11:13:10;97.23;;;29.20;;
45368;SDS011;51342;55.250;37.668;2022-12-10T11:15:54;93.37;;;25.37;;
45368;SDS011;51342;55.250;37.668;2022-12-10T11:18:32;94.83;;;25.70;;
45368;SDS011;51342;55.250;37.668;2022-12-10T11:23:48;82.63;;;24.98;;
45368;SDS011;51342;55.250;37.668;2022-12-10T11:38:42;98.90;;;35.17;;
45368;SDS011;51342;55.250;37.668;2022-12-10T11:44:13;251.53;;;118.53;;
45368;SDS011;51342;55.250;37.668;2022-12-10T11:55:17;80.70;;;27.43;;
45368;SDS011;51342;55.250;37.668;2022-12-10T12:09:27;74.83;;;23.80;;
45368;SDS011;51342;55.250;37.668;2022-12-10T12:15:03;74.23;;;24.10;;
45368;SDS011;51342;55.250;37.668;2022-12-10T12:17:56;72.33;;;20.67;;
45368;SDS011;51342;55.250;37.668;2022-12-10T12:20:32;73.00;;;22.20;;
45368;SDS011;51342;55.250;37.668;2022-12-10T12:23:11;77.55;;;22.45;;
45368;SDS011;51342;55.250;37.668;2022-12-10T12:25:54;69.17;;;22.00;;
45368;SDS011;51342;55.250;37.668;2022-12-10T12:28:32;83.47;;;24.23;;
45368;SDS011;51342;55.250;37.668;2022-12-10T12:31:12;61.50;;;21.43;;
45368;SDS011;51342;55.250;37.668;2022-12-10T12:33:54;68.13;;;21.07;;
45368;SDS011;51342;55.250;37.668;2022-12-10T12:36:44;74.83;;;22.93;;
45368;SDS011;51342;55.250;37.668;2022-12-10T12:39:18;66.70;;;20.60;;
45368;SDS011;51342;55.250;37.668;2022-12-10T12:42:16;63.07;;;21.17;;
45368;SDS011;51342;55.250;37.668;2022-12-10T12:47:40;67.37;;;21.37;;
45368;SDS011;51342;55.250;37.668;2022-12-10T12:50:24;56.80;;;21.02;;
45368;SDS011;51342;55.250;37.668;2022-12-10T12:53:11;66.47;;;21.80;;
45368;SDS011;51342;55.250;37.668;2022-12-10T12:55:50;96.35;;;37.83;;
45368;SDS011;51342;55.250;37.668;2022-12-10T12:59:31;83.67;;;35.87;;
45368;SDS011;51342;55.250;37.668;2022-12-10T13:02:02;229.97;;;128.53;;
45368;SDS011;51342;55.250;37.668;2022-12-10T13:04:38;65.43;;;22.03;;
45368;SDS011;51342;55.250;37.668;2022-12-10T13:07:26;56.67;;;19.60;;
45368;SDS011;51342;55.250;37.668;2022-12-10T13:15:37;60.40;;;18.93;;
45368;SDS011;51342;55.250;37.668;2022-12-10T13:25:56;70.27;;;26.23;;
45368;SDS011;51342;55.250;37.668;2022-12-10T13:33:46;55.65;;;19.42;;
45368;SDS011;51342;55.250;37.668;2022-12-10T13:36:25;54.33;;;20.00;;
45368;SDS011;51342;55.250;37.668;2022-12-10T13:41:40;45.50;;;15.50;;
45368;SDS011;51342;55.250;37.668;2022-12-10T13:44:56;42.40;;;14.60;;
45368;SDS011;51342;55.250;37.668;2022-12-10T13:50:18;41.60;;;14.73;;
45368;SDS011;51342;55.250;37.668;2022-12-10T14:07:20;34.37;;;13.40;;
45368;SDS011;51342;55.250;37.668;2022-12-10T14:09:54;39.43;;;15.30;;
45368;SDS011;51342;55.250;37.668;2022-12-10T14:15:05;36.80;;;17.90;;
45368;SDS011;51342;55.250;37.668;2022-12-10T14:17:40;35.87;;;14.80;;
45368;SDS011;51342;55.250;37.668;2022-12-10T14:20:15;39.97;;;16.67;;
45368;SDS011;51342;55.250;37.668;2022-12-10T14:22:50;29.97;;;12.80;;
45368;SDS011;51342;55.250;37.668;2022-12-10T14:25:23;35.53;;;13.70;;
45368;SDS011;51342;55.250;37.668;2022-12-10T14:27:55;40.17;;;18.53;;
45368;SDS011;51342;55.250;37.668;2022-12-10T14:30:26;37.10;;;14.60;;
45368;SDS011;51342;55.250;37.668;2022-12-10T14:32:59;46.70;;;26.63;;
45368;SDS011;51342;55.250;37.668;2022-12-10T14:35:30;34.23;;;15.70;;
45368;SDS011;51342;55.250;37.668;2022-12-10T14:38:02;39.07;;;16.10;;
45368;SDS011;51342;55.250;37.668;2022-12-10T14:40:40;33.80;;;16.17;;
45368;SDS011;51342;55.250;37.668;2022-12-10T14:43:14;34.97;;;13.70;;
45368;SDS011;51342;55.250;37.668;2022-12-10T14:45:53;38.67;;;14.40;;
45368;SDS011;51342;55.250;37.668;2022-12-10T14:48:27;29.07;;;13.80;;
45368;SDS011;51342;55.250;37.668;2022-12-10T14:51:06;31.70;;;14.23;;
45368;SDS011;51342;55.250;37.668;2022-12-10T14:53:48;30.35;;;12.90;;
45368;SDS011;51342;55.250;37.668;2022-12-10T14:56:30;30.47;;;13.47;;
45368;SDS011;51342;55.250;37.668;2022-12-10T15:02:01;26.53;;;13.23;;
45368;SDS011;51342;55.250;37.668;2022-12-10T15:04:43;28.47;;;12.23;;
45368;SDS011;51342;55.250;37.668;2022-12-10T15:07:19;31.63;;;13.50;;
45368;SDS011;51342;55.250;37.668;2022-12-10T15:09:54;28.13;;;11.87;;
45368;SDS011;51342;55.250;37.668;2022-12-10T15:12:34;26.33;;;13.10;;
45368;SDS011;51342;55.250;37.668;2022-12-10T15:15:15;39.07;;;19.97;;
45368;SDS011;51342;55.250;37.668;2022-12-10T15:23:19;41.40;;;24.47;;
45368;SDS011;51342;55.250;37.668;2022-12-10T15:28:34;25.80;;;13.83;;
45368;SDS011;51342;55.250;37.668;2022-12-10T15:31:11;26.98;;;15.23;;
45368;SDS011;51342;55.250;37.668;2022-12-10T15:33:48;20.87;;;10.23;;
45368;SDS011;51342;55.250;37.668;2022-12-10T15:36:31;21.67;;;11.07;;
45368;SDS011;51342;55.250;37.668;2022-12-10T15:47:12;14.50;;;7.83;;
45368;SDS011;51342;55.250;37.668;2022-12-10T15:49:48;15.60;;;8.03;;
45368;SDS011;51342;55.250;37.668;2022-12-10T15:52:30;15.57;;;7.90;;
45368;SDS011;51342;55.250;37.668;2022-12-10T15:55:02;14.23;;;7.23;;
45368;SDS011;51342;55.250;37.668;2022-12-10T15:57:37;13.70;;;7.27;;
45368;SDS011;51342;55.250;37.668;2022-12-10T16:00:22;13.70;;;7.10;;
45368;SDS011;51342;55.250;37.668;2022-12-10T16:02:56;14.70;;;8.10;;
45368;SDS011;51342;55.250;37.668;2022-12-10T16:05:34;14.43;;;8.20;;
45368;SDS011;51342;55.250;37.668;2022-12-10T16:10:51;11.07;;;7.07;;
45368;SDS011;51342;55.250;37.668;2022-12-10T16:13:28;13.60;;;6.60;;
45368;SDS011;51342;55.250;37.668;2022-12-10T16:16:04;10.50;;;6.53;;
45368;SDS011;51342;55.250;37.668;2022-12-10T16:18:37;10.27;;;6.57;;
45368;SDS011;51342;55.250;37.668;2022-12-10T16:21:09;9.73;;;5.73;;
45368;SDS011;51342;55.250;37.668;2022-12-10T16:23:40;13.80;;;10.10;;
45368;SDS011;51342;55.250;37.668;2022-12-10T16:26:19;12.20;;;8.77;;
45368;SDS011;51342;55.250;37.668;2022-12-10T16:28:52;7.93;;;5.37;;
45368;SDS011;51342;55.250;37.668;2022-12-10T16:31:23;8.60;;;5.43;;
45368;SDS011;51342;55.250;37.668;2022-12-10T16:33:56;8.63;;;6.53;;
45368;SDS011;51342;55.250;37.668;2022-12-10T16:36:27;9.93;;;5.90;;
45368;SDS011;51342;55.250;37.668;2022-12-10T16:38:59;12.13;;;8.30;;
45368;SDS011;51342;55.250;37.668;2022-12-10T16:41:30;9.57;;;6.53;;
45368;SDS011;51342;55.250;37.668;2022-12-10T16:44:02;8.80;;;5.43;;
45368;SDS011;51342;55.250;37.668;2022-12-10T16:46:33;34.67;;;24.53;;
45368;SDS011;51342;55.250;37.668;2022-12-10T16:49:05;41.60;;;30.37;;
45368;SDS011;51342;55.250;37.668;2022-12-10T16:51:36;36.20;;;26.03;;
45368;SDS011;51342;55.250;37.668;2022-12-10T16:54:09;212.10;;;161.17;;
45368;SDS011;51342;55.250;37.668;2022-12-10T16:56:41;60.20;;;40.73;;
45368;SDS011;51342;55.250;37.668;2022-12-10T16:59:13;40.73;;;28.73;;
45368;SDS011;51342;55.250;37.668;2022-12-10T17:01:44;34.93;;;26.97;;
45368;SDS011;51342;55.250;37.668;2022-12-10T17:04:16;16.77;;;13.03;;
45368;SDS011;51342;55.250;37.668;2022-12-10T17:06:47;11.60;;;7.77;;
45368;SDS011;51342;55.250;37.668;2022-12-10T17:09:19;12.43;;;7.93;;
45368;SDS011;51342;55.250;37.668;2022-12-10T17:11:50;27.00;;;24.20;;
45368;SDS011;51342;55.250;37.668;2022-12-10T17:14:25;12.93;;;10.83;;
45368;SDS011;51342;55.250;37.668;2022-12-10T17:16:59;14.90;;;12.03;;
45368;SDS011;51342;55.250;37.668;2022-12-10T17:19:35;10.63;;;6.10;;
45368;SDS011;51342;55.250;37.668;2022-12-10T17:22:08;16.23;;;11.30;;